Time;durP1;ratioP1;P1;durP2;ratioP2;P2;SDS_P1;SDS_P2;PMS_P1;PMS_P2;Temp;Humidity;BMP_temperature;BMP_pressure;BME280_temperature;BME280_humidity;BME280_pressure;Samples;Min_cycle;Max_cycle;Signal;HPM_P1;HPM_P2
2021/07/14 11:51:16;;;;;;;3.10;2.90;;;;;;;17.46;82.81;96840.13;5107683;27;20466;-78
2021/07/14 11:53:50;;;;;;;3.63;3.13;;;;;;;17.93;79.40;96829.34;5090130;28;20458;-78
2021/07/14 11:56:36;;;;;;;3.35;2.85;;;;;;;18.15;77.71;96829.31;5105746;28;20081;-78
2021/07/14 11:59:13;;;;;;;3.55;3.25;;;;;;;18.45;76.47;96826.19;5102168;28;20054;-78
2021/07/14 12:01:38;;;;;;;2.95;2.75;;;;;;;18.61;76.38;96839.75;5106527;28;20150;-79
2021/07/14 12:04:06;;;;;;;3.13;2.83;;;;;;;18.70;75.74;96843.22;5105851;28;20115;-79
2021/07/14 12:06:52;;;;;;;3.13;2.67;;;;;;;18.43;75.95;96844.19;5091017;28;20044;-79
2021/07/14 12:09:17;;;;;;;2.35;2.15;;;;;;;18.72;75.41;96848.94;5063330;28;20035;-79
2021/07/14 12:11:43;;;;;;;2.92;2.72;;;;;;;18.65;75.38;96851.25;5104570;28;20471;-79
2021/07/14 12:14:11;;;;;;;4.32;2.80;;;;;;;18.58;75.13;96853.56;5104146;28;20028;-78
2021/07/14 12:16:37;;;;;;;4.03;2.30;;;;;;;18.77;74.60;96848.03;5103889;28;20374;-79
2021/07/14 12:19:02;;;;;;;2.85;2.65;;;;;;;18.79;74.92;96841.38;5083773;28;20032;-79
2021/07/14 12:21:41;;;;;;;2.70;2.50;;;;;;;18.63;74.78;96845.53;5085240;28;20036;-79
2021/07/14 12:24:27;;;;;;;2.70;2.50;;;;;;;18.44;75.18;96835.97;5102333;28;20522;-79
2021/07/14 12:27:10;;;;;;;2.75;2.55;;;;;;;18.58;75.08;96846.41;5089755;28;20027;-78
2021/07/14 12:29:36;;;;;;;4.00;2.97;;;;;;;18.71;74.84;96839.47;5077647;28;20232;-78
2021/07/14 12:32:03;;;;;;;3.67;3.22;;;;;;;18.71;74.48;96844.75;5095678;28;20036;-78
2021/07/14 12:34:29;;;;;;;4.10;3.22;;;;;;;18.72;74.32;96833.91;5092771;28;20039;-79
2021/07/14 12:36:56;;;;;;;3.58;2.95;;;;;;;18.68;74.55;96834.84;5082577;28;20711;-79
2021/07/14 12:39:28;;;;;;;2.78;2.58;;;;;;;18.57;74.68;96836.94;5083582;28;20031;-78
2021/07/14 12:42:00;;;;;;;3.33;3.03;;;;;;;18.60;74.56;96831.06;5095116;28;20478;-76
2021/07/14 12:44:26;;;;;;;2.83;2.53;;;;;;;18.56;75.21;96832.78;5084700;28;20036;-77
2021/07/14 12:46:52;;;;;;;3.20;2.83;;;;;;;18.61;74.59;96839.75;5084048;28;20051;-77
2021/07/14 12:49:20;;;;;;;3.13;2.83;;;;;;;18.41;74.99;96844.47;5060659;28;20513;-77
2021/07/14 12:51:59;;;;;;;3.05;2.78;;;;;;;18.20;75.96;96843.44;5096191;28;20041;-77
2021/07/14 12:54:24;;;;;;;2.83;2.47;;;;;;;18.53;75.22;96830.72;5097893;28;20059;-78
2021/07/14 12:56:50;;;;;;;3.65;3.15;;;;;;;18.60;74.95;96833.72;5104093;28;20020;-78
2021/07/14 12:59:15;;;;;;;3.63;3.20;;;;;;;18.66;74.89;96835.13;5093896;28;20024;-78
2021/07/14 13:01:44;;;;;;;3.83;3.20;;;;;;;18.70;74.74;96843.22;5059158;28;20052;-79
2021/07/14 13:04:14;;;;;;;3.13;2.83;;;;;;;18.84;74.32;96849.19;5080834;28;20951;-78
2021/07/14 13:06:40;;;;;;;3.42;3.15;;;;;;;18.82;74.54;96853.19;5085854;28;20043;-78
2021/07/14 13:09:05;;;;;;;3.42;3.00;;;;;;;18.80;74.57;96853.50;5047768;28;20032;-78
2021/07/14 13:11:31;;;;;;;3.55;2.60;;;;;;;18.80;74.58;96861.41;5082531;28;20047;-78
2021/07/14 13:13:57;;;;;;;3.05;2.75;;;;;;;18.66;75.16;96850.97;5071439;28;20082;-78
2021/07/14 13:16:26;;;;;;;2.88;2.30;;;;;;;18.56;75.08;96847.78;5072753;28;20107;-78
2021/07/14 13:18:53;;;;;;;2.95;2.75;;;;;;;18.79;74.83;96840.59;5059415;28;20032;-78
2021/07/14 13:21:23;;;;;;;6.40;3.88;;;;;;;18.67;74.91;96838.53;5077985;28;20453;-78
2021/07/14 13:23:49;;;;;;;3.42;3.05;;;;;;;18.78;74.73;96834.56;5076804;28;20107;-78
2021/07/14 13:26:21;;;;;;;2.63;2.42;;;;;;;18.56;75.12;96832.78;5054569;28;20020;-78
2021/07/14 13:28:50;;;;;;;3.22;2.03;;;;;;;18.61;75.55;96824.72;5065989;28;20115;-78
2021/07/14 13:31:26;;;;;;;3.10;2.40;;;;;;;18.41;76.16;96818.13;5069243;28;20036;-78
2021/07/14 13:34:01;;;;;;;2.95;2.00;;;;;;;18.51;75.65;96815.22;5077225;28;20437;-78
2021/07/14 13:36:29;;;;;;;2.45;1.98;;;;;;;18.58;76.05;96811.38;5069210;28;20493;-78
2021/07/14 13:38:56;;;;;;;1.92;1.80;;;;;;;18.67;75.67;96817.44;5067228;28;20051;-77
2021/07/14 13:41:34;;;;;;;2.55;2.30;;;;;;;18.55;75.63;96819.88;5086969;28;20048;-78
2021/07/14 13:44:00;;;;;;;2.05;1.73;;;;;;;18.69;75.87;96810.00;5053420;28;20150;-78
2021/07/14 13:46:32;;;;;;;1.77;1.67;;;;;;;18.76;75.39;96799.78;5088531;28;20480;-78
2021/07/14 13:49:09;;;;;;;2.50;1.55;;;;;;;18.60;76.22;96812.59;5081655;28;20028;-78
2021/07/14 13:51:40;;;;;;;1.63;1.40;;;;;;;18.90;75.20;96808.38;5066907;28;20031;-78
2021/07/14 13:54:18;;;;;;;2.30;1.48;;;;;;;18.74;75.51;96809.84;5084179;28;20039;-78
2021/07/14 13:57:05;;;;;;;1.88;1.55;;;;;;;18.78;76.06;96812.66;5064725;28;20459;-78
2021/07/14 13:59:31;;;;;;;1.33;1.20;;;;;;;18.68;74.97;96803.97;5049156;28;20359;-79
2021/07/14 14:02:01;;;;;;;1.40;1.30;;;;;;;18.67;74.71;96820.84;5066887;28;20024;-78
2021/07/14 14:04:28;;;;;;;1.50;1.40;;;;;;;18.84;75.02;96800.94;5050516;28;20033;-78
2021/07/14 14:06:57;;;;;;;1.52;1.42;;;;;;;18.87;74.54;96805.59;5030656;28;20032;-78
2021/07/14 14:09:23;;;;;;;1.23;0.90;;;;;;;18.75;74.84;96803.50;5036482;28;20032;-78
2021/07/14 14:11:49;;;;;;;1.30;1.20;;;;;;;18.77;74.89;96801.34;5061909;28;20093;-78
2021/07/14 14:14:15;;;;;;;1.73;1.35;;;;;;;18.73;75.11;96795.13;5051927;28;20089;-78
2021/07/14 14:16:41;;;;;;;1.60;1.50;;;;;;;18.80;75.75;96794.66;5055167;28;20024;-78
2021/07/14 14:19:08;;;;;;;2.33;1.10;;;;;;;18.76;75.76;96794.50;5049196;28;20678;-77
2021/07/14 14:21:34;;;;;;;2.17;1.52;;;;;;;18.94;75.23;96805.16;5044837;28;20081;-77
2021/07/14 14:24:05;;;;;;;2.00;1.48;;;;;;;18.90;76.16;96816.31;5065176;28;20084;-77
2021/07/14 14:26:30;;;;;;;1.20;1.10;;;;;;;18.97;74.75;96812.44;5043870;28;20377;-78
2021/07/14 14:28:56;;;;;;;1.50;1.17;;;;;;;18.86;75.40;96806.66;5057291;28;20068;-77
2021/07/14 14:31:24;;;;;;;1.27;1.17;;;;;;;18.87;75.30;96805.59;5059196;28;20099;-77
2021/07/14 14:33:52;;;;;;;1.02;1.00;;;;;;;18.94;75.24;96790.09;5037340;28;20032;-77
2021/07/14 14:36:18;;;;;;;1.10;1.00;;;;;;;18.93;75.37;96809.63;5067343;28;20103;-78
2021/07/14 14:38:44;;;;;;;0.80;0.80;;;;;;;18.86;75.00;96804.03;5048401;28;20110;-77
2021/07/14 14:41:09;;;;;;;1.00;1.00;;;;;;;18.92;74.97;96813.38;5026662;28;20940;-77
2021/07/14 14:43:35;;;;;;;1.13;1.02;;;;;;;18.89;74.99;96825.28;5064404;28;20040;-77
2021/07/14 14:46:00;;;;;;;1.08;0.82;;;;;;;18.94;74.10;96842.84;5035698;28;20100;-77
2021/07/14 14:48:26;;;;;;;1.40;0.85;;;;;;;18.97;74.55;96857.28;5069190;28;20040;-77
2021/07/14 14:50:51;;;;;;;1.05;1.00;;;;;;;18.89;74.70;96851.66;5062884;28;20040;-78
2021/07/14 14:53:17;;;;;;;1.20;1.10;;;;;;;18.88;74.81;96849.34;5064973;28;20052;-77
2021/07/14 14:55:43;;;;;;;1.25;1.15;;;;;;;18.84;74.95;96825.44;5047593;28;20032;-78
2021/07/14 14:58:08;;;;;;;0.95;0.90;;;;;;;18.86;74.75;96804.03;5069450;28;20443;-78
2021/07/14 15:00:34;;;;;;;6.35;1.40;;;;;;;18.93;74.75;96793.03;5075369;28;20036;-77
2021/07/14 15:03:01;;;;;;;1.38;1.02;;;;;;;18.84;74.99;96785.88;5082106;28;20032;-77
2021/07/14 15:05:26;;;;;;;1.02;1.00;;;;;;;18.93;74.94;96791.16;5082614;28;20434;-77
2021/07/14 15:07:51;;;;;;;2.67;1.50;;;;;;;18.67;76.05;96783.94;5069277;28;20036;-77
2021/07/14 15:10:17;;;;;;;1.00;1.00;;;;;;;18.84;75.41;96791.16;5069634;28;20035;-77
2021/07/14 15:12:43;;;;;;;0.80;0.80;;;;;;;18.77;74.69;96793.44;5051618;28;20023;-77
2021/07/14 15:15:09;;;;;;;0.90;0.90;;;;;;;18.79;74.77;96785.97;5067999;28;20079;-77
2021/07/14 15:17:35;;;;;;;3.08;1.80;;;;;;;18.79;75.29;96788.63;5066396;28;20025;-77
2021/07/14 15:20:00;;;;;;;1.10;1.00;;;;;;;18.89;74.90;96793.63;5080768;28;20032;-77
2021/07/14 15:22:26;;;;;;;1.05;1.05;;;;;;;18.98;74.58;96785.72;5072708;28;20029;-77
2021/07/14 15:24:57;;;;;;;2.55;1.33;;;;;;;18.93;74.94;96787.75;5064709;28;20052;-77
2021/07/14 15:30:07;;;;;;;1.98;1.67;;;;;;;18.95;74.43;96788.22;5067709;28;20129;-77
2021/07/14 15:32:32;;;;;;;1.25;1.17;;;;;;;19.05;74.21;96788.69;5069143;28;20531;-78
2021/07/14 15:34:58;;;;;;;2.05;1.00;;;;;;;18.95;74.39;96796.13;5080054;28;20117;-77
2021/07/14 15:37:24;;;;;;;0.80;0.80;;;;;;;18.80;75.06;96784.13;5080186;28;20086;-78
2021/07/14 15:39:51;;;;;;;0.70;0.70;;;;;;;18.81;74.21;96785.69;5064421;28;20033;-78
2021/07/14 15:42:16;;;;;;;1.15;1.08;;;;;;;18.84;74.65;96785.88;5065117;28;20024;-77
2021/07/14 15:44:42;;;;;;;0.70;0.70;;;;;;;18.94;74.65;96779.53;5083839;28;20466;-77
2021/07/14 15:47:08;;;;;;;1.00;1.00;;;;;;;18.84;74.62;96770.03;5067450;28;20032;-77
2021/07/14 15:49:33;;;;;;;2.25;0.73;;;;;;;18.92;74.62;96770.34;5062453;28;20049;-77
2021/07/14 15:51:59;;;;;;;9.68;1.15;;;;;;;19.03;74.25;96767.13;5083745;28;20506;-77
2021/07/14 15:54:24;;;;;;;0.70;0.70;;;;;;;19.05;74.28;96772.84;5069873;28;20036;-77
2021/07/14 15:56:50;;;;;;;1.30;0.80;;;;;;;18.95;74.14;96764.47;5062305;28;20033;-78
2021/07/14 15:59:15;;;;;;;1.42;0.85;;;;;;;18.89;74.74;96767.25;5065718;28;20036;-77
2021/07/14 16:01:41;;;;;;;1.13;0.80;;;;;;;18.86;74.50;96775.78;5076463;28;20028;-78
2021/07/14 16:04:07;;;;;;;0.80;0.70;;;;;;;18.77;74.52;96772.31;5065303;28;20029;-78
2021/07/14 16:06:32;;;;;;;0.85;0.80;;;;;;;18.86;74.44;96780.28;5047658;28;20027;-77
2021/07/14 16:08:57;;;;;;;1.15;1.10;;;;;;;18.98;74.26;96777.06;5061634;28;20065;-78
2021/07/14 16:11:23;;;;;;;0.98;0.90;;;;;;;19.02;74.19;96764.78;5081286;28;20475;-78
2021/07/14 16:13:48;;;;;;;0.70;0.70;;;;;;;19.16;73.79;96762.78;5086200;28;20036;-77
2021/07/14 16:16:13;;;;;;;0.82;0.80;;;;;;;19.22;73.57;96769.47;5048639;28;20036;-77
2021/07/14 16:18:39;;;;;;;1.25;0.73;;;;;;;19.10;73.48;96761.38;5067529;28;20705;-78
2021/07/14 16:21:05;;;;;;;0.80;0.80;;;;;;;19.17;73.49;96763.56;5083328;28;20059;-77
2021/07/14 16:23:31;;;;;;;0.60;0.60;;;;;;;19.17;73.51;96763.56;5068505;28;20363;-78
2021/07/14 16:25:57;;;;;;;1.17;0.68;;;;;;;19.15;73.85;96755.19;5065711;28;20036;-77
2021/07/14 16:28:23;;;;;;;1.00;0.60;;;;;;;19.17;73.60;96753.78;5038397;28;20028;-77
2021/07/14 16:30:48;;;;;;;0.70;0.70;;;;;;;19.16;73.49;96759.34;5064342;28;20036;-78
2021/07/14 16:33:14;;;;;;;1.20;0.90;;;;;;;19.04;73.95;96758.13;5076782;28;20035;-77
2021/07/14 16:35:41;;;;;;;1.92;1.10;;;;;;;19.09;73.75;96757.22;5068928;28;20982;-77
2021/07/14 16:38:07;;;;;;;0.98;0.98;;;;;;;19.15;73.51;96760.47;5070124;28;20028;-77
2021/07/14 16:40:32;;;;;;;1.17;0.80;;;;;;;19.18;73.54;96757.97;5084585;28;20689;-77
2021/07/14 16:42:57;;;;;;;0.60;0.60;;;;;;;19.22;73.21;96758.91;5090169;28;20548;-78
2021/07/14 16:45:23;;;;;;;0.80;0.65;;;;;;;19.15;73.51;96763.09;5056314;28;20028;-77
2021/07/14 16:47:48;;;;;;;0.75;0.70;;;;;;;19.12;73.32;96758.44;5071670;28;20024;-77
2021/07/14 16:50:15;;;;;;;0.73;0.73;;;;;;;18.98;74.28;96766.50;5073195;28;20043;-78
2021/07/14 16:52:41;;;;;;;0.52;0.38;;;;;;;18.88;74.19;96776.28;5085828;28;20039;-77
2021/07/14 16:55:08;;;;;;;0.75;0.50;;;;;;;18.94;73.93;96781.41;5070472;28;20028;-77
2021/07/14 16:57:33;;;;;;;1.05;0.70;;;;;;;18.89;74.11;96787.59;5061818;28;20487;-78
2021/07/14 16:59:58;;;;;;;1.35;0.47;;;;;;;18.93;74.27;96787.75;5068547;28;20020;-77
2021/07/14 17:02:24;;;;;;;0.75;0.50;;;;;;;18.95;74.27;96780.31;5087305;28;20036;-78
2021/07/14 17:04:49;;;;;;;0.98;0.70;;;;;;;18.87;74.41;96769.44;5072656;28;20024;-79
2021/07/14 17:07:15;;;;;;;1.25;1.15;;;;;;;18.93;74.33;96766.66;5077133;28;20107;-79
2021/07/14 17:09:40;;;;;;;2.95;1.27;;;;;;;18.84;74.26;96769.28;5070855;28;20059;-79
2021/07/14 17:12:06;;;;;;;0.80;0.80;;;;;;;18.89;74.11;96767.25;5063882;28;20028;-79
2021/07/14 17:14:32;;;;;;;0.90;0.60;;;;;;;18.83;74.54;96760.59;5088811;28;20089;-79
2021/07/14 17:16:57;;;;;;;2.17;1.13;;;;;;;18.96;74.23;96755.47;5072080;28;20460;-79
2021/07/14 17:19:23;;;;;;;0.73;0.55;;;;;;;19.04;73.81;96754.72;5071626;28;20021;-79
2021/07/14 17:21:48;;;;;;;1.40;0.30;;;;;;;18.97;73.77;96751.75;5049695;28;20097;-78
2021/07/14 17:24:14;;;;;;;0.43;0.40;;;;;;;18.98;73.61;96742.75;5046377;28;20411;-78
2021/07/14 17:26:43;;;;;;;1.63;0.60;;;;;;;18.88;74.36;96752.53;5066845;28;20067;-78
2021/07/14 17:29:11;;;;;;;0.40;0.40;;;;;;;18.93;74.39;96741.03;5089551;28;20082;-78
2021/07/14 17:31:38;;;;;;;0.45;0.45;;;;;;;18.92;74.15;96755.31;5069917;28;20067;-78
2021/07/14 17:34:05;;;;;;;0.40;0.40;;;;;;;18.88;74.11;96749.09;5070455;28;20135;-77
2021/07/14 17:36:31;;;;;;;0.35;0.25;;;;;;;18.93;74.21;96750.81;5079239;28;20081;-78
2021/07/14 17:38:57;;;;;;;0.90;0.40;;;;;;;18.95;73.87;96751.28;5069836;28;20039;-77
2021/07/14 17:41:24;;;;;;;1.00;0.50;;;;;;;19.01;73.97;96745.53;5056149;28;20028;-78
2021/07/14 17:43:50;;;;;;;1.02;0.47;;;;;;;18.82;74.48;96743.19;5070967;28;20047;-77
2021/07/14 17:46:15;;;;;;;0.75;0.40;;;;;;;18.85;74.17;96747.06;5076573;28;20024;-78
2021/07/14 17:48:41;;;;;;;0.30;0.30;;;;;;;18.81;74.76;96743.47;5087367;28;20043;-78
2021/07/14 17:51:06;;;;;;;0.30;0.30;;;;;;;18.75;74.77;96747.34;5086798;28;20032;-77
2021/07/14 17:53:31;;;;;;;0.30;0.30;;;;;;;18.87;74.62;96747.56;5072651;28;20086;-77
2021/07/14 17:55:57;;;;;;;1.08;0.30;;;;;;;18.85;74.64;96750.50;5087159;28;20104;-77
2021/07/14 17:58:22;;;;;;;0.43;0.40;;;;;;;18.90;74.31;96744.28;5083350;28;20036;-77
2021/07/14 18:00:47;;;;;;;0.63;0.50;;;;;;;18.73;75.03;96742.38;5070928;28;20020;-77
2021/07/14 18:03:13;;;;;;;0.45;0.45;;;;;;;18.77;75.02;96740.69;5068558;28;20029;-77
2021/07/14 18:05:39;;;;;;;0.30;0.30;;;;;;;18.88;74.58;96749.09;5085765;28;20024;-77
2021/07/14 18:08:04;;;;;;;0.52;0.30;;;;;;;18.92;74.32;96752.69;5088743;28;20024;-77
2021/07/14 18:10:30;;;;;;;0.30;0.30;;;;;;;18.82;74.68;96740.56;5081548;28;20032;-77
2021/07/14 18:12:55;;;;;;;1.67;0.40;;;;;;;18.84;74.78;96727.84;5083866;28;20028;-77
2021/07/14 18:15:21;;;;;;;0.40;0.40;;;;;;;18.70;75.08;96717.41;5067939;28;20119;-77
2021/07/14 18:17:47;;;;;;;0.30;0.30;;;;;;;18.70;75.07;96717.41;5073319;28;20032;-77
2021/07/14 18:20:15;;;;;;;1.08;0.50;;;;;;;18.66;75.00;96715.66;5087684;28;20036;-77
2021/07/14 18:22:42;;;;;;;0.73;0.43;;;;;;;18.83;74.94;96721.03;5066455;28;20031;-77
2021/07/14 18:25:08;;;;;;;0.40;0.40;;;;;;;18.75;74.49;96713.03;5089519;28;20030;-77
2021/07/14 18:27:35;;;;;;;0.50;0.50;;;;;;;18.81;74.56;96723.16;5054743;28;20505;-77
2021/07/14 18:30:01;;;;;;;0.30;0.30;;;;;;;18.82;74.68;96708.91;5063805;28;20522;-77
2021/07/14 18:32:27;;;;;;;0.32;0.32;;;;;;;18.86;74.70;96711.72;5047000;28;20139;-77
2021/07/14 18:34:53;;;;;;;0.30;0.30;;;;;;;18.87;74.37;96703.47;5066686;28;20074;-77
2021/07/14 18:37:20;;;;;;;0.68;0.30;;;;;;;18.88;74.23;96705.06;5069135;28;20044;-77
2021/07/14 18:39:46;;;;;;;0.70;0.70;;;;;;;18.93;74.51;96708.59;5076237;28;20110;-77
2021/07/14 18:42:11;;;;;;;0.40;0.30;;;;;;;18.81;74.79;96709.97;5066210;28;20139;-77
2021/07/14 18:44:37;;;;;;;0.52;0.52;;;;;;;18.86;74.93;96703.78;5069086;28;20043;-76
2021/07/14 18:47:08;;;;;;;1.38;0.30;;;;;;;18.83;74.57;96694.66;5052907;28;20031;-77
2021/07/14 18:49:34;;;;;;;0.63;0.32;;;;;;;18.93;74.29;96695.41;5069415;28;20372;-77
2021/07/14 18:51:59;;;;;;;0.73;0.50;;;;;;;18.93;74.42;96690.13;5071878;28;20755;-77
2021/07/14 18:54:24;;;;;;;0.75;0.40;;;;;;;18.96;74.37;96682.38;5069028;28;20115;-76
2021/07/14 18:56:52;;;;;;;0.60;0.50;;;;;;;18.86;74.65;96685.31;5069172;28;20038;-77
2021/07/14 18:59:17;;;;;;;0.30;0.30;;;;;;;18.92;74.59;96688.56;5067537;28;20390;-77
2021/07/14 19:01:45;;;;;;;0.50;0.30;;;;;;;18.88;74.59;96691.84;5071067;28;20035;-77
2021/07/14 19:04:10;;;;;;;0.50;0.50;;;;;;;18.88;74.58;96697.13;5070744;28;20432;-77
2021/07/14 19:06:35;;;;;;;0.38;0.38;;;;;;;18.90;74.27;96691.53;5076238;28;20098;-77
2021/07/14 19:09:01;;;;;;;0.40;0.40;;;;;;;18.84;74.92;96677.72;5070484;28;20036;-77
2021/07/14 19:11:26;;;;;;;0.50;0.50;;;;;;;18.78;75.06;96675.50;5072870;28;20055;-77
2021/07/14 19:13:52;;;;;;;0.82;0.30;;;;;;;18.85;74.92;96676.66;5068643;28;20470;-77
2021/07/14 19:16:18;;;;;;;0.55;0.55;;;;;;;18.80;74.77;96670.69;5068630;28;20123;-77
2021/07/14 19:18:43;;;;;;;3.53;0.70;;;;;;;18.71;75.15;96678.59;5075950;28;20115;-77
2021/07/14 19:21:08;;;;;;;0.80;0.70;;;;;;;18.85;74.67;96686.41;5044098;28;20915;-77
2021/07/14 19:23:34;;;;;;;2.50;0.90;;;;;;;18.89;74.51;96682.06;5078154;28;20543;-77
2021/07/14 19:26:05;;;;;;;1.45;0.82;;;;;;;18.90;74.82;96694.16;5060442;28;20028;-77
2021/07/14 19:28:33;;;;;;;1.05;1.00;;;;;;;18.84;75.02;96690.91;5069605;28;20063;-77
2021/07/14 19:30:58;;;;;;;0.95;0.95;;;;;;;18.84;74.95;96708.59;5076251;28;20020;-77
2021/07/14 19:33:24;;;;;;;1.90;1.23;;;;;;;18.81;74.77;96709.97;5079560;28;20042;-77
2021/07/14 19:35:49;;;;;;;0.98;0.77;;;;;;;18.79;74.91;96693.66;5068286;28;20039;-77
2021/07/14 19:38:18;;;;;;;8.32;1.33;;;;;;;18.87;74.63;96706.13;5066236;28;20063;-77
2021/07/14 19:40:43;;;;;;;1.30;1.00;;;;;;;18.90;74.55;96710.00;5071497;28;20107;-77
2021/07/14 19:43:08;;;;;;;1.00;1.00;;;;;;;19.03;74.14;96710.94;5073255;28;20273;-77
2021/07/14 19:45:36;;;;;;;1.67;1.23;;;;;;;18.97;74.53;96709.53;5072026;28;20039;-77
2021/07/14 19:48:01;;;;;;;1.00;1.00;;;;;;;18.97;74.58;96701.63;5085229;28;20081;-77
2021/07/14 19:50:26;;;;;;;1.02;1.00;;;;;;;18.98;74.46;96695.25;5085072;28;20036;-77
2021/07/14 19:52:52;;;;;;;1.15;1.05;;;;;;;18.95;74.10;96694.00;5047974;28;20416;-77
2021/07/14 19:55:17;;;;;;;1.95;0.90;;;;;;;18.96;74.23;96689.53;5067838;28;20032;-77
2021/07/14 19:57:43;;;;;;;1.27;0.93;;;;;;;18.99;74.00;96699.47;5069610;28;20117;-77
2021/07/14 20:00:10;;;;;;;0.93;0.90;;;;;;;19.03;74.02;96700.38;5067645;28;20029;-77
2021/07/14 20:02:36;;;;;;;0.85;0.80;;;;;;;19.07;74.13;96698.66;5070939;28;20576;-77
2021/07/14 20:05:02;;;;;;;1.98;1.33;;;;;;;19.06;74.09;96697.91;5086108;28;20111;-77
2021/07/14 20:07:27;;;;;;;0.82;0.82;;;;;;;19.07;73.98;96702.09;5068308;28;20025;-77
2021/07/14 20:09:52;;;;;;;0.98;0.90;;;;;;;19.02;74.02;96701.47;5066593;28;20025;-77
2021/07/14 20:12:18;;;;;;;0.90;0.90;;;;;;;19.04;73.96;96709.88;5090483;28;20043;-77
2021/07/14 20:14:43;;;;;;;0.60;0.60;;;;;;;19.06;73.84;96707.69;5072110;28;20457;-77
2021/07/14 20:17:09;;;;;;;0.95;0.82;;;;;;;19.01;73.91;96703.34;5053130;28;20070;-77
2021/07/14 20:19:34;;;;;;;1.23;0.70;;;;;;;19.01;73.93;96703.34;5089653;28;20455;-77
2021/07/14 20:21:59;;;;;;;0.80;0.80;;;;;;;18.92;74.46;96705.19;5073457;28;20031;-77
2021/07/14 20:24:25;;;;;;;1.10;1.00;;;;;;;18.93;74.32;96704.09;5076023;28;20040;-77
2021/07/14 20:26:51;;;;;;;1.00;1.00;;;;;;;18.96;74.36;96705.34;5059747;28;20082;-77
2021/07/14 20:29:16;;;;;;;1.40;1.30;;;;;;;18.96;74.50;96714.03;5045879;28;20101;-77
2021/07/14 20:31:42;;;;;;;0.93;0.90;;;;;;;19.02;74.10;96712.00;5070483;28;20028;-77
2021/07/14 20:34:07;;;;;;;0.80;0.80;;;;;;;19.03;74.11;96708.31;5083540;28;20025;-77
2021/07/14 20:36:33;;;;;;;0.98;0.98;;;;;;;18.90;74.24;96710.00;5063427;28;20086;-77
2021/07/14 20:38:58;;;;;;;1.38;1.08;;;;;;;19.03;73.85;96716.22;5093046;28;20036;-77
2021/07/14 20:41:24;;;;;;;1.00;1.00;;;;;;;18.93;74.41;96714.66;5085149;28;20034;-77
2021/07/14 20:43:49;;;;;;;2.03;1.10;;;;;;;18.93;74.46;96714.66;5057860;28;20070;-77
2021/07/14 20:46:15;;;;;;;1.30;1.20;;;;;;;18.92;74.51;96715.75;5074923;28;20031;-77
2021/07/14 20:48:40;;;;;;;1.70;1.10;;;;;;;19.01;74.19;96715.75;5048285;28;20037;-77
2021/07/14 20:51:06;;;;;;;2.15;1.30;;;;;;;18.92;74.19;96707.84;5060748;28;20402;-77
2021/07/14 20:53:32;;;;;;;1.67;1.30;;;;;;;18.96;74.39;96715.91;5074747;28;20104;-77
2021/07/14 20:55:57;;;;;;;1.20;1.10;;;;;;;18.95;74.22;96709.84;5070930;28;20028;-77
2021/07/14 20:58:23;;;;;;;1.52;1.20;;;;;;;19.04;73.63;96709.88;5040428;28;20037;-77
2021/07/14 21:00:48;;;;;;;2.45;1.20;;;;;;;18.82;74.28;96698.34;5052956;28;20028;-77
2021/07/14 21:03:14;;;;;;;1.20;1.10;;;;;;;19.00;73.66;96701.75;5067168;28;20051;-77
2021/07/14 21:05:39;;;;;;;1.00;1.00;;;;;;;18.92;74.03;96699.13;5062657;28;20138;-77
2021/07/14 21:08:05;;;;;;;1.33;1.23;;;;;;;18.88;73.96;96699.78;5061938;28;20040;-77
2021/07/14 21:10:31;;;;;;;1.50;1.40;;;;;;;18.85;74.06;96692.47;5070833;28;20040;-77
2021/07/14 21:12:57;;;;;;;1.48;1.00;;;;;;;18.81;73.98;96690.72;5054802;28;20047;-77
2021/07/14 21:15:22;;;;;;;1.15;1.05;;;;;;;18.85;74.07;96694.31;5071477;28;20033;-77
2021/07/14 21:17:48;;;;;;;1.67;1.23;;;;;;;18.84;74.16;96690.91;5071422;28;20120;-77
2021/07/14 21:20:16;;;;;;;1.40;1.08;;;;;;;18.71;74.21;96691.78;5080229;28;20039;-77
2021/07/14 21:22:42;;;;;;;1.23;1.17;;;;;;;18.74;74.33;96704.38;5067278;28;20035;-77
2021/07/14 21:25:09;;;;;;;1.30;1.20;;;;;;;18.74;74.37;96701.72;5064008;28;20118;-77
2021/07/14 21:27:35;;;;;;;2.35;1.70;;;;;;;18.67;74.49;96704.81;5063509;28;20051;-78
2021/07/14 21:30:00;;;;;;;2.13;2.03;;;;;;;18.61;74.63;96707.91;5085049;28;20071;-77
2021/07/14 21:32:26;;;;;;;1.85;1.73;;;;;;;18.75;74.36;96705.94;5055781;28;20937;-77
2021/07/14 21:34:52;;;;;;;1.48;1.38;;;;;;;18.70;74.26;96698.94;5087700;28;20028;-77
2021/07/14 21:37:17;;;;;;;2.83;2.30;;;;;;;18.81;74.02;96709.19;5071903;28;20038;-77
2021/07/14 21:39:43;;;;;;;1.75;1.65;;;;;;;18.78;74.05;96704.53;5065220;28;20100;-77
2021/07/14 21:42:09;;;;;;;2.22;2.03;;;;;;;18.77;73.89;96711.66;5089990;28;20144;-77
2021/07/14 21:44:34;;;;;;;2.50;2.28;;;;;;;18.73;74.00;96708.09;5070442;28;20409;-77
2021/07/14 21:47:01;;;;;;;2.47;2.20;;;;;;;18.73;73.98;96702.84;5090677;28;20035;-77
2021/07/14 21:49:28;;;;;;;4.20;2.60;;;;;;;18.67;74.12;96701.41;5076923;28;20040;-77
2021/07/14 21:51:54;;;;;;;3.58;2.22;;;;;;;18.70;74.04;96695.53;5085751;28;20036;-77
2021/07/14 21:54:19;;;;;;;1.88;1.77;;;;;;;18.72;73.78;96704.66;5081390;28;20036;-77
2021/07/14 21:56:45;;;;;;;2.67;2.40;;;;;;;18.74;73.90;96707.00;5090869;28;20059;-77
2021/07/14 21:59:11;;;;;;;2.30;2.10;;;;;;;18.78;73.84;96710.59;5050269;28;20032;-77
2021/07/14 22:01:37;;;;;;;2.40;2.20;;;;;;;18.77;73.96;96711.66;5053958;28;20039;-77
2021/07/14 22:04:03;;;;;;;2.75;2.40;;;;;;;18.75;73.82;96705.13;5078466;28;20043;-77
2021/07/14 22:06:29;;;;;;;2.38;2.17;;;;;;;18.82;73.96;96697.56;5069458;28;20036;-77
2021/07/14 22:08:54;;;;;;;2.65;2.45;;;;;;;18.70;73.73;96696.28;5049934;28;20086;-78
2021/07/14 22:11:20;;;;;;;2.75;2.55;;;;;;;18.68;73.89;96690.56;5072078;28;20028;-77
2021/07/14 22:13:45;;;;;;;3.22;2.38;;;;;;;18.59;74.34;96689.00;5080290;28;20119;-77
2021/07/14 22:16:12;;;;;;;3.13;2.78;;;;;;;18.64;74.12;96694.13;5069541;28;20044;-78
2021/07/14 22:18:39;;;;;;;3.33;2.70;;;;;;;18.67;74.18;96690.88;5061800;28;20033;-77
2021/07/14 22:21:08;;;;;;;3.60;2.83;;;;;;;18.71;74.06;96691.78;5081766;28;20048;-77
2021/07/14 22:23:38;;;;;;;4.05;2.65;;;;;;;18.62;73.88;96691.00;5077858;28;20484;-77
2021/07/14 22:26:09;;;;;;;5.47;2.72;;;;;;;18.59;74.18;96691.63;5073098;28;20119;-77
2021/07/14 22:28:35;;;;;;;3.15;2.83;;;;;;;18.66;73.97;96700.66;5046412;28;20085;-77
2021/07/14 22:31:04;;;;;;;3.80;2.92;;;;;;;18.65;73.94;96693.03;5046287;28;20037;-78
2021/07/14 22:33:29;;;;;;;5.30;3.08;;;;;;;18.69;73.59;96700.00;5046350;28;20031;-77
2021/07/14 22:35:58;;;;;;;3.83;2.90;;;;;;;18.67;73.72;96690.88;5082340;28;20020;-77
2021/07/14 22:38:26;;;;;;;5.32;3.20;;;;;;;18.70;73.74;96695.53;5068234;28;20024;-77
2021/07/14 22:40:53;;;;;;;5.28;3.38;;;;;;;18.70;73.83;96701.56;5068427;28;20050;-77
2021/07/14 22:43:23;;;;;;;10.73;3.65;;;;;;;18.60;73.96;96709.78;5069983;28;20097;-77
2021/07/14 22:45:49;;;;;;;4.35;3.35;;;;;;;18.72;73.73;96709.19;5087576;28;20032;-77
2021/07/14 22:48:15;;;;;;;3.60;3.15;;;;;;;18.63;74.07;96703.13;5088995;28;20024;-77
2021/07/14 22:50:42;;;;;;;4.85;3.83;;;;;;;18.68;74.25;96697.72;5063599;28;20442;-77
2021/07/14 22:53:07;;;;;;;5.18;3.40;;;;;;;18.65;74.19;96701.72;5083555;28;20039;-77
2021/07/14 22:55:34;;;;;;;4.78;3.17;;;;;;;18.63;74.47;96705.75;5071685;28;20024;-77
2021/07/14 22:57:59;;;;;;;6.47;3.85;;;;;;;18.68;74.12;96716.16;5085207;28;20028;-77
2021/07/14 23:00:26;;;;;;;7.15;3.85;;;;;;;18.71;73.89;96711.03;5070370;28;20411;-77
2021/07/14 23:02:52;;;;;;;7.13;4.22;;;;;;;18.71;73.93;96710.25;5088341;28;20035;-77
2021/07/14 23:05:18;;;;;;;5.00;3.90;;;;;;;18.74;73.80;96716.78;5071070;28;20028;-77
2021/07/14 23:07:44;;;;;;;17.77;3.90;;;;;;;18.70;73.75;96721.91;5054411;28;20358;-77
2021/07/14 23:10:12;;;;;;;4.70;3.60;;;;;;;18.71;73.86;96723.44;5065176;28;20040;-77
2021/07/14 23:12:38;;;;;;;8.95;4.50;;;;;;;18.79;73.79;96720.03;5076680;28;20025;-77
2021/07/14 23:15:06;;;;;;;4.28;3.60;;;;;;;18.71;73.66;96718.97;5045073;28;20031;-77
2021/07/14 23:17:31;;;;;;;6.20;4.35;;;;;;;18.78;73.80;96723.78;5064399;28;20442;-77
2021/07/14 23:19:58;;;;;;;7.07;4.43;;;;;;;18.78;73.27;96726.41;5048925;28;20047;-77
2021/07/14 23:22:24;;;;;;;5.60;4.28;;;;;;;18.84;73.50;96730.47;5062133;28;20107;-77
2021/07/14 23:28:30;;;;;;;6.53;4.13;;;;;;;18.84;73.53;96727.84;5162872;22;20560;-78